Time;durP1;ratioP1;P1;durP2;ratioP2;P2;SDS_P1;SDS_P2;PMS_P1;PMS_P2;Temp;Humidity;BMP_temperature;BMP_pressure;BME280_temperature;BME280_humidity;BME280_pressure;Samples;Min_cycle;Max_cycle;Signal;HPM_P1;HPM_P2
2023/08/18 00:01:55;;;;;;;;;;;17.20;99.90;;;;;;5095553;28;20299;-63
2023/08/18 00:04:22;;;;;;;;;;;17.20;99.90;;;;;;5113372;28;19924;-63
2023/08/18 00:06:49;;;;;;;;;;;17.20;99.90;;;;;;5092579;28;19948;-63
2023/08/18 00:09:15;;;;;;;;;;;17.20;99.90;;;;;;5113507;28;19927;-63
2023/08/18 00:11:42;;;;;;;;;;;17.10;99.90;;;;;;5113244;28;19969;-63
2023/08/18 00:14:09;;;;;;;;;;;17.10;99.90;;;;;;5094961;28;19935;-62
2023/08/18 00:16:35;;;;;;;;;;;17.10;99.90;;;;;;5113355;28;19923;-62
2023/08/18 00:19:04;;;;;;;;;;;17.00;99.90;;;;;;5094572;28;19977;-63
2023/08/18 00:21:31;;;;;;;;;;;16.90;99.90;;;;;;5095220;28;20383;-63
2023/08/18 00:23:57;;;;;;;;;;;16.90;99.90;;;;;;5095115;28;19930;-62
2023/08/18 00:26:24;;;;;;;;;;;16.80;99.90;;;;;;5112400;28;19977;-62
2023/08/18 00:28:51;;;;;;;;;;;16.80;99.90;;;;;;5092713;28;19924;-63
2023/08/18 00:31:17;;;;;;;;;;;16.70;99.90;;;;;;5095199;28;19923;-63
2023/08/18 00:33:44;;;;;;;;;;;16.70;99.90;;;;;;5094380;28;19931;-61
2023/08/18 00:36:12;;;;;;;;;;;16.60;99.90;;;;;;5112998;28;19923;-62
2023/08/18 00:38:39;;;;;;;;;;;16.60;99.90;;;;;;5094725;28;19924;-62
2023/08/18 00:41:05;;;;;;;;;;;16.70;99.90;;;;;;5112189;28;19961;-61
2023/08/18 00:43:32;;;;;;;;;;;16.60;99.90;;;;;;5094999;28;20351;-62
2023/08/18 00:45:59;;;;;;;;;;;16.70;99.90;;;;;;5094522;28;19980;-62
2023/08/18 00:48:26;;;;;;;;;;;16.60;99.90;;;;;;5112135;28;19931;-62
2023/08/18 00:50:53;;;;;;;;;;;16.60;99.90;;;;;;5094942;28;19924;-62
2023/08/18 00:53:21;;;;;;;;;;;16.60;99.90;;;;;;5112646;28;19931;-63
2023/08/18 00:55:48;;;;;;;;;;;16.60;99.90;;;;;;5110260;28;19931;-63
2023/08/18 00:58:15;;;;;;;;;;;16.60;99.90;;;;;;5094351;28;19969;-62
2023/08/18 01:00:42;;;;;;;;;;;16.70;99.90;;;;;;5113069;28;20325;-63
2023/08/18 01:03:10;;;;;;;;;;;16.60;99.90;;;;;;5115206;28;20311;-63
2023/08/18 01:05:37;;;;;;;;;;;16.60;99.90;;;;;;5116988;28;19923;-63
2023/08/18 01:08:04;;;;;;;;;;;16.70;99.90;;;;;;5116152;28;19924;-62
2023/08/18 01:10:33;;;;;;;;;;;16.70;99.90;;;;;;5116789;28;19930;-62
2023/08/18 01:13:05;;;;;;;;;;;16.70;99.90;;;;;;5116929;28;19923;-62
2023/08/18 01:15:34;;;;;;;;;;;16.70;99.90;;;;;;5097980;28;20379;-62
2023/08/18 01:18:01;;;;;;;;;;;16.70;99.90;;;;;;5098615;28;19923;-63
2023/08/18 01:20:28;;;;;;;;;;;16.70;99.90;;;;;;5098173;28;19924;-62
2023/08/18 01:22:57;;;;;;;;;;;16.80;99.90;;;;;;5115844;28;19923;-64
2023/08/18 01:25:24;;;;;;;;;;;16.80;99.90;;;;;;5114675;28;19923;-62
2023/08/18 01:27:51;;;;;;;;;;;16.80;99.90;;;;;;5116448;28;19924;-63
2023/08/18 01:30:19;;;;;;;;;;;16.80;99.90;;;;;;5115777;28;20288;-62
2023/08/18 01:32:52;;;;;;;;;;;16.80;99.90;;;;;;5098276;28;19924;-62
2023/08/18 01:35:19;;;;;;;;;;;16.90;99.90;;;;;;5116182;28;19931;-62
2023/08/18 01:37:47;;;;;;;;;;;16.90;99.90;;;;;;5097591;28;19923;-63
2023/08/18 01:40:16;;;;;;;;;;;16.90;99.90;;;;;;5098053;28;20351;-63
2023/08/18 01:42:43;;;;;;;;;;;16.90;99.90;;;;;;5116447;28;19924;-63
2023/08/18 01:45:11;;;;;;;;;;;16.90;99.90;;;;;;5094981;28;19924;-63
2023/08/18 01:47:38;;;;;;;;;;;16.90;99.90;;;;;;5115604;28;20406;-63
2023/08/18 01:50:05;;;;;;;;;;;16.90;99.90;;;;;;5116157;28;20015;-63
2023/08/18 01:52:31;;;;;;;;;;;16.90;99.90;;;;;;5096988;28;19997;-63
2023/08/18 01:54:58;;;;;;;;;;;16.80;99.90;;;;;;5115878;28;19969;-63
2023/08/18 01:57:26;;;;;;;;;;;16.80;99.90;;;;;;5096847;28;19931;-63
2023/08/18 01:59:53;;;;;;;;;;;16.80;99.90;;;;;;5116114;28;19931;-63
2023/08/18 02:02:20;;;;;;;;;;;16.80;99.90;;;;;;5115599;28;20685;-63
2023/08/18 02:04:46;;;;;;;;;;;16.70;99.90;;;;;;5115194;28;19924;-63
2023/08/18 02:07:13;;;;;;;;;;;16.70;99.90;;;;;;5097167;28;20401;-63
2023/08/18 02:09:40;;;;;;;;;;;16.60;99.90;;;;;;5097412;28;19924;-63
2023/08/18 02:12:07;;;;;;;;;;;16.60;99.90;;;;;;5096861;28;19924;-62
2023/08/18 02:14:36;;;;;;;;;;;16.60;99.90;;;;;;5115395;28;19924;-63
2023/08/18 02:17:03;;;;;;;;;;;16.50;99.90;;;;;;5113315;28;20019;-63
2023/08/18 02:19:29;;;;;;;;;;;16.40;99.90;;;;;;5114884;28;19923;-62
2023/08/18 02:21:56;;;;;;;;;;;16.40;99.90;;;;;;5115519;28;19928;-62
2023/08/18 02:24:23;;;;;;;;;;;16.30;99.90;;;;;;5097128;28;19939;-62
2023/08/18 02:26:50;;;;;;;;;;;16.30;99.90;;;;;;5114626;28;20387;-62
2023/08/18 02:29:16;;;;;;;;;;;16.30;99.90;;;;;;5096727;28;19977;-62
2023/08/18 02:31:44;;;;;;;;;;;16.40;99.90;;;;;;5115632;28;19924;-62
2023/08/18 02:34:11;;;;;;;;;;;16.40;99.90;;;;;;5114571;28;19931;-62
2023/08/18 02:36:38;;;;;;;;;;;16.40;99.90;;;;;;5115421;28;19973;-62
2023/08/18 02:39:05;;;;;;;;;;;16.50;99.90;;;;;;5096930;28;20001;-62
2023/08/18 02:41:31;;;;;;;;;;;16.50;99.90;;;;;;5114696;28;20002;-63
2023/08/18 02:43:58;;;;;;;;;;;16.60;99.90;;;;;;5096939;28;20315;-63
2023/08/18 02:46:25;;;;;;;;;;;16.60;99.90;;;;;;5096802;28;19924;-63
2023/08/18 02:48:53;;;;;;;;;;;16.70;99.90;;;;;;5096143;28;19951;-63
2023/08/18 02:51:19;;;;;;;;;;;16.70;99.90;;;;;;5096584;28;20405;-62
2023/08/18 02:53:48;;;;;;;;;;;16.70;99.90;;;;;;5114197;28;19924;-63
2023/08/18 02:56:15;;;;;;;;;;;16.80;99.90;;;;;;5114647;28;19931;-63
2023/08/18 02:58:42;;;;;;;;;;;16.80;99.90;;;;;;5096358;28;19928;-62
2023/08/18 03:01:08;;;;;;;;;;;16.80;99.90;;;;;;5114175;28;20264;-63
2023/08/18 03:03:35;;;;;;;;;;;16.90;99.90;;;;;;5114794;28;20307;-62
2023/08/18 03:06:05;;;;;;;;;;;16.90;99.90;;;;;;5114435;28;19934;-62
2023/08/18 03:08:32;;;;;;;;;;;16.90;99.90;;;;;;5113805;28;19928;-62
2023/08/18 03:11:00;;;;;;;;;;;16.90;99.90;;;;;;5114278;28;19924;-62
2023/08/18 03:13:27;;;;;;;;;;;16.90;99.90;;;;;;5096430;28;19931;-62
2023/08/18 03:15:54;;;;;;;;;;;17.00;99.90;;;;;;5113859;28;19930;-62
2023/08/18 03:18:20;;;;;;;;;;;17.00;99.90;;;;;;5095911;28;19924;-62
2023/08/18 03:20:47;;;;;;;;;;;17.00;99.90;;;;;;5114426;28;19924;-62
2023/08/18 03:23:16;;;;;;;;;;;17.00;99.90;;;;;;5113568;28;19977;-64
2023/08/18 03:25:43;;;;;;;;;;;17.00;99.90;;;;;;5113279;28;20360;-63
2023/08/18 03:28:10;;;;;;;;;;;17.00;99.90;;;;;;5114237;28;19973;-62
2023/08/18 03:30:37;;;;;;;;;;;17.10;99.90;;;;;;5111376;28;19931;-63
2023/08/18 03:33:04;;;;;;;;;;;17.10;99.90;;;;;;5114021;28;19932;-63
2023/08/18 03:35:32;;;;;;;;;;;17.10;99.90;;;;;;5114150;28;19930;-64
2023/08/18 03:37:58;;;;;;;;;;;17.10;99.90;;;;;;5113531;28;19973;-63
2023/08/18 03:40:27;;;;;;;;;;;17.10;99.90;;;;;;5114057;28;19923;-63
2023/08/18 03:42:53;;;;;;;;;;;17.00;99.90;;;;;;5092690;28;19928;-63
2023/08/18 03:45:20;;;;;;;;;;;17.10;99.90;;;;;;5095669;28;19938;-63
2023/08/18 03:47:47;;;;;;;;;;;17.10;99.90;;;;;;5085050;28;19935;-64
2023/08/18 03:50:14;;;;;;;;;;;17.30;99.90;;;;;;5086737;28;20352;-63
2023/08/18 03:52:41;;;;;;;;;;;17.30;99.90;;;;;;5088971;28;20459;-63
2023/08/18 03:55:09;;;;;;;;;;;17.70;99.90;;;;;;5090226;28;19924;-64
2023/08/18 03:57:37;;;;;;;;;;;18.00;99.90;;;;;;5090394;28;19928;-63
2023/08/18 04:00:04;;;;;;;;;;;18.00;99.90;;;;;;5090806;28;19927;-63
2023/08/18 04:02:31;;;;;;;;;;;18.30;99.90;;;;;;5086712;28;20272;-63
2023/08/18 04:04:57;;;;;;;;;;;18.20;99.90;;;;;;5090554;28;20376;-62
2023/08/18 04:07:24;;;;;;;;;;;18.30;99.90;;;;;;5088834;28;19935;-63
2023/08/18 04:09:51;;;;;;;;;;;18.30;99.90;;;;;;5090873;28;19955;-63
2023/08/18 04:12:18;;;;;;;;;;;18.50;99.90;;;;;;5089948;28;20269;-63
2023/08/18 04:14:46;;;;;;;;;;;18.60;99.90;;;;;;5091504;28;19924;-63
2023/08/18 04:17:12;;;;;;;;;;;18.60;99.90;;;;;;5089669;28;19927;-64
2023/08/18 04:19:39;;;;;;;;;;;18.80;99.90;;;;;;5089565;28;20371;-64
2023/08/18 04:22:06;;;;;;;;;;;18.80;99.90;;;;;;5089490;28;20377;-63
2023/08/18 04:24:33;;;;;;;;;;;18.80;99.90;;;;;;5089033;28;19935;-64
2023/08/18 04:27:00;;;;;;;;;;;18.70;99.90;;;;;;5089004;28;19932;-63
2023/08/18 04:29:26;;;;;;;;;;;18.70;99.90;;;;;;5086533;28;20027;-63
2023/08/18 04:31:55;;;;;;;;;;;18.80;99.90;;;;;;5120571;27;20345;-64
2023/08/18 04:34:22;;;;;;;;;;;18.60;99.90;;;;;;5088344;28;19924;-63
2023/08/18 04:36:48;;;;;;;;;;;18.70;99.90;;;;;;5087394;28;19928;-63
2023/08/18 04:39:16;;;;;;;;;;;18.60;99.90;;;;;;5086220;28;20341;-63
2023/08/18 04:41:42;;;;;;;;;;;18.70;99.90;;;;;;5089743;28;19939;-63
2023/08/18 04:44:09;;;;;;;;;;;18.60;99.90;;;;;;5088687;28;19924;-63
2023/08/18 04:46:36;;;;;;;;;;;18.70;99.90;;;;;;5090595;28;19931;-63
2023/08/18 04:49:04;;;;;;;;;;;18.60;99.90;;;;;;5104321;28;19981;-64
2023/08/18 04:51:31;;;;;;;;;;;18.80;99.90;;;;;;5111933;28;19924;-63
2023/08/18 04:53:58;;;;;;;;;;;18.70;99.90;;;;;;5092614;28;20064;-63
2023/08/18 04:56:24;;;;;;;;;;;18.70;99.90;;;;;;5093551;28;19927;-63
2023/08/18 04:58:51;;;;;;;;;;;18.50;99.90;;;;;;5091409;28;19977;-63
2023/08/18 05:01:18;;;;;;;;;;;18.40;99.90;;;;;;5107926;28;19930;-64
2023/08/18 05:03:45;;;;;;;;;;;18.40;99.90;;;;;;5107262;28;20021;-63
2023/08/18 05:06:13;;;;;;;;;;;18.40;99.90;;;;;;5110527;28;19930;-64
2023/08/18 05:08:40;;;;;;;;;;;18.40;99.90;;;;;;5090479;28;20439;-64
2023/08/18 05:11:07;;;;;;;;;;;18.30;99.90;;;;;;5091205;28;19928;-64
2023/08/18 05:13:34;;;;;;;;;;;18.40;99.90;;;;;;5111606;28;19931;-64
2023/08/18 05:16:01;;;;;;;;;;;18.20;99.90;;;;;;5090331;28;19928;-64
2023/08/18 05:18:29;;;;;;;;;;;18.30;99.90;;;;;;5110570;28;20019;-64
2023/08/18 05:20:56;;;;;;;;;;;18.50;99.90;;;;;;5107392;28;19924;-64
2023/08/18 05:23:24;;;;;;;;;;;18.50;99.90;;;;;;5091487;28;19924;-63
2023/08/18 05:25:54;;;;;;;;;;;18.40;99.90;;;;;;5110111;28;19935;-63
2023/08/18 05:28:20;;;;;;;;;;;18.40;99.90;;;;;;5106952;28;19935;-64
2023/08/18 05:30:47;;;;;;;;;;;18.60;99.90;;;;;;5110361;28;19924;-64
2023/08/18 05:33:14;;;;;;;;;;;18.40;99.90;;;;;;5093215;28;19927;-65
2023/08/18 05:35:41;;;;;;;;;;;18.30;99.90;;;;;;5091831;28;20352;-63
2023/08/18 05:38:10;;;;;;;;;;;18.40;99.90;;;;;;5093169;28;19928;-62
2023/08/18 05:40:40;;;;;;;;;;;18.60;99.90;;;;;;5092796;28;19998;-63
2023/08/18 05:43:07;;;;;;;;;;;18.60;99.90;;;;;;5092473;28;19977;-64
2023/08/18 05:45:35;;;;;;;;;;;18.70;99.90;;;;;;5109682;28;20277;-63
2023/08/18 05:48:01;;;;;;;;;;;18.50;99.90;;;;;;5111605;28;19985;-64
2023/08/18 05:50:29;;;;;;;;;;;18.50;99.90;;;;;;5110246;28;20261;-65
2023/08/18 05:52:56;;;;;;;;;;;18.40;99.90;;;;;;5095362;28;19930;-64
2023/08/18 05:55:23;;;;;;;;;;;18.50;99.90;;;;;;5114636;28;19923;-64
2023/08/18 05:57:51;;;;;;;;;;;18.60;99.90;;;;;;5094442;28;19924;-63
2023/08/18 06:00:18;;;;;;;;;;;18.60;99.90;;;;;;5113783;28;19924;-63
2023/08/18 06:02:45;;;;;;;;;;;18.50;99.90;;;;;;5111874;28;20379;-63
2023/08/18 06:05:11;;;;;;;;;;;18.60;99.90;;;;;;5112871;28;19930;-63
2023/08/18 06:07:39;;;;;;;;;;;18.60;99.90;;;;;;5110885;28;19939;-63
2023/08/18 06:10:06;;;;;;;;;;;18.60;99.90;;;;;;5114989;28;20287;-63
2023/08/18 06:12:33;;;;;;;;;;;18.90;99.90;;;;;;5092107;28;19932;-63
2023/08/18 06:15:02;;;;;;;;;;;18.90;99.90;;;;;;5095695;28;19924;-63
2023/08/18 06:17:28;;;;;;;;;;;19.00;99.90;;;;;;5109971;28;20357;-63
2023/08/18 06:19:55;;;;;;;;;;;19.00;99.90;;;;;;5112605;28;19928;-62
2023/08/18 06:22:22;;;;;;;;;;;18.90;99.90;;;;;;5112805;28;19923;-63
2023/08/18 06:24:49;;;;;;;;;;;18.80;99.90;;;;;;5095474;28;19931;-65
2023/08/18 06:27:15;;;;;;;;;;;18.80;99.90;;;;;;5113283;28;20298;-62
2023/08/18 06:29:42;;;;;;;;;;;18.90;99.90;;;;;;5096166;28;19969;-63
2023/08/18 06:32:10;;;;;;;;;;;18.90;99.90;;;;;;5112043;28;19931;-64
2023/08/18 06:34:37;;;;;;;;;;;18.90;99.90;;;;;;5114657;28;19924;-64
2023/08/18 06:37:04;;;;;;;;;;;19.00;99.90;;;;;;5093048;28;19936;-64
2023/08/18 06:39:30;;;;;;;;;;;19.00;99.90;;;;;;5112645;28;19934;-63
2023/08/18 06:41:57;;;;;;;;;;;19.00;99.90;;;;;;5111822;28;19925;-64
2023/08/18 06:44:24;;;;;;;;;;;19.00;99.90;;;;;;5112824;28;19934;-63
2023/08/18 06:46:51;;;;;;;;;;;19.20;99.90;;;;;;5113633;28;19930;-63
2023/08/18 06:49:19;;;;;;;;;;;19.10;99.90;;;;;;5111252;28;19927;-63
2023/08/18 06:51:46;;;;;;;;;;;19.10;99.90;;;;;;5112982;28;19969;-64
2023/08/18 06:54:13;;;;;;;;;;;19.00;99.90;;;;;;5111962;28;20310;-63
2023/08/18 06:56:40;;;;;;;;;;;19.00;99.90;;;;;;5095820;28;19927;-64
2023/08/18 06:59:07;;;;;;;;;;;19.00;99.90;;;;;;5111031;28;20368;-64
2023/08/18 07:01:33;;;;;;;;;;;18.90;99.90;;;;;;5113382;28;19924;-63
2023/08/18 07:04:00;;;;;;;;;;;19.20;99.90;;;;;;5092416;28;19923;-64
2023/08/18 07:06:28;;;;;;;;;;;19.20;99.90;;;;;;5111878;28;20375;-64
2023/08/18 07:08:55;;;;;;;;;;;19.10;99.90;;;;;;5092022;28;19935;-64
2023/08/18 07:11:21;;;;;;;;;;;19.10;99.90;;;;;;5113352;28;20295;-63
2023/08/18 07:13:48;;;;;;;;;;;19.20;99.90;;;;;;5110255;28;19940;-64
2023/08/18 07:16:15;;;;;;;;;;;19.20;99.90;;;;;;5112942;28;19931;-65
2023/08/18 07:18:42;;;;;;;;;;;19.10;99.90;;;;;;5110896;28;20372;-64
2023/08/18 07:21:08;;;;;;;;;;;19.20;99.90;;;;;;5112862;28;19924;-63
2023/08/18 07:23:36;;;;;;;;;;;19.20;99.90;;;;;;5094510;28;19931;-63
2023/08/18 07:26:04;;;;;;;;;;;19.20;99.90;;;;;;5111536;28;19924;-63
2023/08/18 07:28:31;;;;;;;;;;;19.20;99.90;;;;;;5093751;28;19939;-64
2023/08/18 07:31:02;;;;;;;;;;;19.10;99.90;;;;;;5093883;28;19949;-63
2023/08/18 07:33:29;;;;;;;;;;;19.00;99.90;;;;;;5096634;28;19928;-64
2023/08/18 07:35:56;;;;;;;;;;;19.10;99.90;;;;;;5092935;28;20367;-64
2023/08/18 07:38:23;;;;;;;;;;;19.00;99.90;;;;;;5113066;28;19980;-63
2023/08/18 07:40:51;;;;;;;;;;;19.00;99.90;;;;;;5095487;28;19977;-64
2023/08/18 07:43:18;;;;;;;;;;;18.90;99.90;;;;;;5095077;28;19924;-63
2023/08/18 07:45:45;;;;;;;;;;;18.90;99.90;;;;;;5113719;28;19924;-63
2023/08/18 07:48:12;;;;;;;;;;;18.90;99.90;;;;;;5113321;28;20370;-64
2023/08/18 07:50:40;;;;;;;;;;;18.90;99.90;;;;;;5113167;28;19932;-63
2023/08/18 07:53:07;;;;;;;;;;;18.80;99.90;;;;;;5113753;28;20384;-64
2023/08/18 07:55:33;;;;;;;;;;;18.80;99.90;;;;;;5095618;28;19923;-64
2023/08/18 07:58:02;;;;;;;;;;;18.80;99.90;;;;;;5094988;28;19923;-64
2023/08/18 08:00:30;;;;;;;;;;;18.80;99.90;;;;;;5111543;28;19924;-63
2023/08/18 08:02:57;;;;;;;;;;;18.80;99.90;;;;;;5095026;28;20343;-63
2023/08/18 08:05:24;;;;;;;;;;;18.80;99.90;;;;;;5094547;28;20434;-64
2023/08/18 08:07:51;;;;;;;;;;;18.80;99.90;;;;;;5095265;28;19923;-64
2023/08/18 08:10:17;;;;;;;;;;;18.80;99.90;;;;;;5112482;28;20302;-63
2023/08/18 08:12:45;;;;;;;;;;;19.00;99.90;;;;;;5095075;28;19931;-63
2023/08/18 08:15:14;;;;;;;;;;;19.20;99.90;;;;;;5094998;28;20363;-63
2023/08/18 08:17:40;;;;;;;;;;;19.30;99.90;;;;;;5094619;28;20015;-64
2023/08/18 08:20:14;;;;;;;;;;;19.40;99.90;;;;;;5113236;28;19930;-64
2023/08/18 08:22:41;;;;;;;;;;;19.50;99.90;;;;;;5113022;28;19927;-64
2023/08/18 08:25:08;;;;;;;;;;;19.70;99.90;;;;;;5094403;28;19950;-63
2023/08/18 08:27:35;;;;;;;;;;;19.80;99.90;;;;;;5094938;28;19930;-63
2023/08/18 08:30:02;;;;;;;;;;;20.00;99.90;;;;;;5113018;28;19931;-64
2023/08/18 08:32:30;;;;;;;;;;;19.90;99.90;;;;;;5094085;28;19924;-64
2023/08/18 08:34:57;;;;;;;;;;;20.00;99.90;;;;;;5112673;28;19927;-64
2023/08/18 08:37:23;;;;;;;;;;;20.10;99.90;;;;;;5112915;28;19924;-64
2023/08/18 08:39:50;;;;;;;;;;;20.20;99.90;;;;;;5094258;28;19977;-65
2023/08/18 08:42:17;;;;;;;;;;;20.30;99.90;;;;;;5094911;28;19931;-64
2023/08/18 08:44:44;;;;;;;;;;;20.40;99.90;;;;;;5094540;28;19927;-63
2023/08/18 08:47:11;;;;;;;;;;;20.50;99.90;;;;;;5094355;28;19924;-63
2023/08/18 08:49:40;;;;;;;;;;;20.50;99.90;;;;;;5094159;28;19924;-63
2023/08/18 08:52:07;;;;;;;;;;;20.50;99.90;;;;;;5112283;28;19930;-64
2023/08/18 08:54:35;;;;;;;;;;;20.70;99.90;;;;;;5114789;28;19928;-63
2023/08/18 08:57:02;;;;;;;;;;;20.70;99.90;;;;;;5092611;28;19930;-64
2023/08/18 08:59:29;;;;;;;;;;;20.90;99.90;;;;;;5112245;28;19963;-63
2023/08/18 09:01:56;;;;;;;;;;;20.90;99.90;;;;;;5094181;28;19923;-63
2023/08/18 09:04:23;;;;;;;;;;;21.00;99.90;;;;;;5112417;28;19928;-66
2023/08/18 09:06:51;;;;;;;;;;;21.00;99.90;;;;;;5096483;28;19924;-64
2023/08/18 09:09:18;;;;;;;;;;;21.20;99.90;;;;;;5094174;28;20011;-64
2023/08/18 09:11:45;;;;;;;;;;;21.30;99.90;;;;;;5112488;28;19930;-64
2023/08/18 09:14:12;;;;;;;;;;;21.50;99.90;;;;;;5093928;28;19943;-64
2023/08/18 09:16:39;;;;;;;;;;;21.50;99.90;;;;;;5112587;28;19923;-64
2023/08/18 09:19:06;;;;;;;;;;;21.40;99.90;;;;;;5090476;28;19996;-64
2023/08/18 09:21:33;;;;;;;;;;;21.40;99.90;;;;;;5111730;28;19931;-64
2023/08/18 09:24:01;;;;;;;;;;;21.60;99.90;;;;;;5097103;28;19923;-64
2023/08/18 09:26:28;;;;;;;;;;;21.60;99.90;;;;;;5116408;28;20375;-64
2023/08/18 09:28:55;;;;;;;;;;;21.70;99.90;;;;;;5113449;28;19931;-64
2023/08/18 09:31:21;;;;;;;;;;;21.60;99.90;;;;;;5116100;28;19946;-64
2023/08/18 09:33:48;;;;;;;;;;;21.50;99.90;;;;;;5116541;28;19924;-63
2023/08/18 09:36:15;;;;;;;;;;;21.30;99.90;;;;;;5115323;28;20303;-64
2023/08/18 09:38:42;;;;;;;;;;;21.40;99.90;;;;;;5116009;28;19924;-65
2023/08/18 09:41:10;;;;;;;;;;;21.50;99.90;;;;;;5116243;28;19930;-64
2023/08/18 09:43:37;;;;;;;;;;;21.60;99.90;;;;;;5116543;27;19924;-65
2023/08/18 09:46:04;;;;;;;;;;;21.50;99.90;;;;;;5116338;28;19924;-64
2023/08/18 09:48:34;;;;;;;;;;;21.40;99.90;;;;;;5097503;28;19974;-64
2023/08/18 09:51:01;;;;;;;;;;;21.60;99.90;;;;;;5115889;28;19924;-64
2023/08/18 09:53:31;;;;;;;;;;;21.90;99.90;;;;;;5106428;28;20436;-64
2023/08/18 09:56:04;;;;;;;;;;;22.20;99.90;;;;;;5094090;28;20407;-64
2023/08/18 09:58:36;;;;;;;;;;;22.30;99.90;;;;;;5111351;28;19932;-65
2023/08/18 10:01:03;;;;;;;;;;;22.40;99.90;;;;;;5092881;28;19924;-64
2023/08/18 10:03:32;;;;;;;;;;;22.40;99.90;;;;;;5113047;28;19923;-63
2023/08/18 10:05:59;;;;;;;;;;;22.50;99.90;;;;;;5110540;28;19935;-64
2023/08/18 10:08:27;;;;;;;;;;;22.60;99.90;;;;;;5114360;28;19972;-63
2023/08/18 10:10:53;;;;;;;;;;;22.60;99.90;;;;;;5093972;28;19924;-63
2023/08/18 10:13:20;;;;;;;;;;;22.70;99.90;;;;;;5113079;28;19928;-64
2023/08/18 10:15:48;;;;;;;;;;;22.90;99.90;;;;;;5112844;28;19924;-64
2023/08/18 10:18:17;;;;;;;;;;;23.10;99.90;;;;;;5094119;28;19932;-64
2023/08/18 10:20:50;;;;;;;;;;;23.30;99.90;;;;;;5112082;28;19924;-65
2023/08/18 10:23:17;;;;;;;;;;;23.60;99.90;;;;;;5095900;28;19924;-64
2023/08/18 10:25:44;;;;;;;;;;;24.00;99.90;;;;;;5112016;28;19931;-64
2023/08/18 10:28:13;;;;;;;;;;;24.00;99.90;;;;;;5112829;28;19923;-64
2023/08/18 10:30:39;;;;;;;;;;;24.20;99.90;;;;;;5112036;28;20347;-64
2023/08/18 10:33:08;;;;;;;;;;;24.10;99.90;;;;;;5113620;28;19977;-64
2023/08/18 10:35:39;;;;;;;;;;;24.00;99.90;;;;;;5112729;28;20013;-64
2023/08/18 10:38:06;;;;;;;;;;;24.00;99.90;;;;;;5095138;28;19927;-64
2023/08/18 10:40:34;;;;;;;;;;;24.10;99.90;;;;;;5111265;28;19931;-64
2023/08/18 10:43:03;;;;;;;;;;;24.00;99.90;;;;;;5094994;28;19927;-64
2023/08/18 10:45:30;;;;;;;;;;;23.90;99.90;;;;;;5111886;28;19928;-64
2023/08/18 10:47:58;;;;;;;;;;;23.90;99.90;;;;;;5111481;28;19940;-63
2023/08/18 10:50:28;;;;;;;;;;;23.80;99.90;;;;;;5113766;28;19932;-64
2023/08/18 10:52:55;;;;;;;;;;;23.80;99.90;;;;;;5093263;28;19938;-64
2023/08/18 10:55:22;;;;;;;;;;;23.80;99.90;;;;;;5115308;27;19990;-64
2023/08/18 10:57:49;;;;;;;;;;;23.80;99.90;;;;;;5111775;28;20022;-64
2023/08/18 11:00:18;;;;;;;;;;;23.90;99.90;;;;;;5094975;28;19963;-63
2023/08/18 11:02:45;;;;;;;;;;;23.90;99.90;;;;;;5111273;28;20010;-65
2023/08/18 11:05:12;;;;;;;;;;;23.70;99.90;;;;;;5095711;28;19958;-64
2023/08/18 11:07:40;;;;;;;;;;;23.90;99.90;;;;;;5093547;28;20021;-64
2023/08/18 11:10:15;;;;;;;;;;;24.10;99.90;;;;;;5113380;28;19924;-65
2023/08/18 11:12:41;;;;;;;;;;;24.20;99.90;;;;;;5109748;28;20449;-65
2023/08/18 11:15:09;;;;;;;;;;;24.20;99.90;;;;;;5094825;28;19935;-64
2023/08/18 11:17:35;;;;;;;;;;;24.10;99.90;;;;;;5110763;28;19927;-64
2023/08/18 11:20:03;;;;;;;;;;;24.20;99.90;;;;;;5113157;28;19924;-64
2023/08/18 11:22:30;;;;;;;;;;;24.20;99.90;;;;;;5094108;28;19928;-64
2023/08/18 11:24:59;;;;;;;;;;;24.40;99.90;;;;;;5112816;28;19931;-64
2023/08/18 11:27:25;;;;;;;;;;;24.90;99.90;;;;;;5094033;28;20450;-63
2023/08/18 11:29:52;;;;;;;;;;;25.30;99.90;;;;;;5110896;28;19928;-64
2023/08/18 11:32:19;;;;;;;;;;;25.00;99.90;;;;;;5111234;28;19932;-63
2023/08/18 11:34:46;;;;;;;;;;;25.50;99.90;;;;;;5091137;28;19931;-64
2023/08/18 11:37:12;;;;;;;;;;;25.40;99.90;;;;;;5094552;28;20367;-64
2023/08/18 11:39:39;;;;;;;;;;;25.30;99.90;;;;;;5108536;28;19931;-63
2023/08/18 11:42:07;;;;;;;;;;;25.60;99.90;;;;;;5093532;28;19927;-64
2023/08/18 11:44:34;;;;;;;;;;;26.10;99.90;;;;;;5111632;28;19931;-64
2023/08/18 11:47:02;;;;;;;;;;;26.70;99.90;;;;;;5094129;28;19945;-64
2023/08/18 11:49:29;;;;;;;;;;;27.00;99.90;;;;;;5111966;28;20022;-64
2023/08/18 11:51:57;;;;;;;;;;;27.10;99.90;;;;;;5095507;28;20379;-64
2023/08/18 11:54:24;;;;;;;;;;;27.90;99.90;;;;;;5095064;28;20291;-63
2023/08/18 11:56:51;;;;;;;;;;;28.10;99.90;;;;;;5112322;28;19924;-64
2023/08/18 11:59:20;;;;;;;;;;;28.20;99.90;;;;;;5113568;28;19967;-63
2023/08/18 12:01:47;;;;;;;;;;;28.10;99.90;;;;;;5113518;28;19923;-64
2023/08/18 12:04:14;;;;;;;;;;;28.10;99.90;;;;;;5112926;28;19976;-64
2023/08/18 12:06:40;;;;;;;;;;;28.00;99.90;;;;;;5094989;28;20435;-64
2023/08/18 12:09:12;;;;;;;;;;;27.70;99.90;;;;;;5095128;28;19927;-64
2023/08/18 12:11:39;;;;;;;;;;;27.50;99.90;;;;;;5094488;28;19930;-64
2023/08/18 12:14:06;;;;;;;;;;;27.20;99.90;;;;;;5113201;28;19931;-64
2023/08/18 12:16:34;;;;;;;;;;;27.10;99.90;;;;;;5094056;28;19930;-64
2023/08/18 12:19:04;;;;;;;;;;;26.80;99.90;;;;;;5112883;28;19924;-64
2023/08/18 12:21:31;;;;;;;;;;;26.70;99.90;;;;;;5094716;28;19924;-64
2023/08/18 12:23:58;;;;;;;;;;;26.50;99.90;;;;;;5112403;28;19977;-64
2023/08/18 12:26:24;;;;;;;;;;;26.50;99.90;;;;;;5094920;28;19927;-63
2023/08/18 12:28:51;;;;;;;;;;;26.70;99.90;;;;;;5112985;28;19924;-65
2023/08/18 12:31:22;;;;;;;;;;;26.60;99.90;;;;;;5094118;28;19988;-64
2023/08/18 12:33:48;;;;;;;;;;;26.10;99.90;;;;;;5113344;28;19931;-63
2023/08/18 12:36:16;;;;;;;;;;;26.10;99.90;;;;;;5095034;28;19931;-65
2023/08/18 12:38:43;;;;;;;;;;;26.10;99.90;;;;;;5113443;28;19932;-63
2023/08/18 12:41:10;;;;;;;;;;;26.10;99.90;;;;;;5094772;28;19923;-64
2023/08/18 12:43:37;;;;;;;;;;;26.10;99.90;;;;;;5094750;28;20322;-63
2023/08/18 12:46:04;;;;;;;;;;;26.10;99.90;;;;;;5109998;28;20280;-64
2023/08/18 12:48:30;;;;;;;;;;;26.20;99.90;;;;;;5091176;28;20000;-64
2023/08/18 12:50:57;;;;;;;;;;;26.30;99.90;;;;;;5092438;28;20441;-64
2023/08/18 12:53:25;;;;;;;;;;;26.20;99.90;;;;;;5090497;28;19924;-65
2023/08/18 12:55:52;;;;;;;;;;;26.30;99.90;;;;;;5092713;28;19924;-64
2023/08/18 12:58:19;;;;;;;;;;;26.10;99.90;;;;;;5095924;28;19939;-64
2023/08/18 13:00:45;;;;;;;;;;;26.10;99.90;;;;;;5094862;28;19924;-64
2023/08/18 13:03:12;;;;;;;;;;;26.00;99.90;;;;;;5095138;28;19970;-65
2023/08/18 13:05:39;;;;;;;;;;;26.10;99.90;;;;;;5095984;28;19931;-64
2023/08/18 13:08:06;;;;;;;;;;;26.20;99.90;;;;;;5095458;28;20311;-64
2023/08/18 13:10:34;;;;;;;;;;;26.10;99.90;;;;;;5095289;28;19924;-64
2023/08/18 13:13:01;;;;;;;;;;;26.10;99.90;;;;;;5096169;28;19928;-64
2023/08/18 13:15:29;;;;;;;;;;;26.10;99.90;;;;;;5096244;28;19937;-64
2023/08/18 13:17:56;;;;;;;;;;;26.10;99.90;;;;;;5096397;28;20285;-63
2023/08/18 13:20:22;;;;;;;;;;;26.30;99.90;;;;;;5095666;28;19924;-64
2023/08/18 13:22:49;;;;;;;;;;;26.40;99.90;;;;;;5096244;28;19924;-63
2023/08/18 13:25:16;;;;;;;;;;;26.80;99.90;;;;;;5096056;28;19928;-64
2023/08/18 13:27:44;;;;;;;;;;;27.00;99.90;;;;;;5095895;28;19974;-65
2023/08/18 13:30:11;;;;;;;;;;;27.60;99.90;;;;;;5094491;28;20018;-64
2023/08/18 13:32:38;;;;;;;;;;;27.20;99.90;;;;;;5094564;28;19932;-63
2023/08/18 13:35:06;;;;;;;;;;;27.50;99.90;;;;;;5093801;28;21175;-64
2023/08/18 13:37:32;;;;;;;;;;;27.90;99.90;;;;;;5095780;28;20300;-64
2023/08/18 13:39:59;;;;;;;;;;;28.20;99.90;;;;;;5095780;28;19959;-65
2023/08/18 13:42:26;;;;;;;;;;;27.80;99.90;;;;;;5094349;28;19924;-65
2023/08/18 13:44:54;;;;;;;;;;;27.60;99.90;;;;;;5095495;28;19955;-65
2023/08/18 13:47:21;;;;;;;;;;;27.50;99.90;;;;;;5095642;28;20338;-64
2023/08/18 13:49:47;;;;;;;;;;;27.70;99.90;;;;;;5093562;28;20273;-64
2023/08/18 13:52:15;;;;;;;;;;;27.40;99.90;;;;;;5094073;28;19931;-64
2023/08/18 13:54:42;;;;;;;;;;;27.40;99.90;;;;;;5093186;28;19924;-65
2023/08/18 13:57:08;;;;;;;;;;;27.50;99.90;;;;;;5093418;28;19928;-63
2023/08/18 13:59:35;;;;;;;;;;;27.40;99.90;;;;;;5093354;28;20025;-63
2023/08/18 14:02:03;;;;;;;;;;;27.10;99.90;;;;;;5094594;28;19924;-63
2023/08/18 14:04:30;;;;;;;;;;;26.80;99.90;;;;;;5094260;28;19974;-65
2023/08/18 14:06:57;;;;;;;;;;;26.90;99.90;;;;;;5095121;28;19932;-65
2023/08/18 14:09:24;;;;;;;;;;;27.40;99.90;;;;;;5092994;28;19928;-64
2023/08/18 14:11:51;;;;;;;;;;;28.50;99.90;;;;;;5095308;28;19924;-64
2023/08/18 14:14:17;;;;;;;;;;;29.80;99.90;;;;;;5093963;28;20015;-64
2023/08/18 14:16:44;;;;;;;;;;;30.50;99.90;;;;;;5094635;28;19924;-64